Falmouth, Michigan
Current Conditions -  °F | °C
As of 11:15 PM on Tuesday 25 Nov 2014 (Local Time) from KCAD Reporting Station
Overcast Overcast  
Wind Chill: 15°   Ceiling: 1400
Heat Index: 24°   Visibility: 10mi
Dew Point: 20°   Wind: 8mph
Humidity: 86%   Direction: 220°SW
Pressure: 30.11"   Gusts: NA
Location:  44.24°N, 85.09°W
Report Text: KCAD 260415Z AUTO 22007KT 10SM OVC014 M04/M06 A3011 RMK AO2 T10461066
Loading
Personal Weather Stations






























Interactive Weather Map New forecast layout! Learn more

10-Day Weather Forecast

Advertisements
Track Severe Weather on mobile